createdAt,value
2022-12-24T00:01:09.871Z,1.77
2022-12-24T00:03:38.249Z,1.23
2022-12-24T00:06:10.098Z,1.03
2022-12-24T00:08:38.008Z,1.47
2022-12-24T00:11:05.859Z,1.23
2022-12-24T00:13:33.717Z,1.43
2022-12-24T00:16:01.936Z,1.37
2022-12-24T00:18:29.752Z,1.00
2022-12-24T00:20:57.504Z,1.97
2022-12-24T00:23:26.029Z,0.60
2022-12-24T00:25:54.108Z,1.33
2022-12-24T00:28:22.058Z,1.37
2022-12-24T00:30:50.004Z,1.13
2022-12-24T00:33:22.650Z,1.33
2022-12-24T00:35:52.970Z,1.50
2022-12-24T00:38:20.736Z,0.77
2022-12-24T00:40:48.565Z,1.50
2022-12-24T00:43:16.385Z,0.90
2022-12-24T00:45:44.306Z,0.77
2022-12-24T00:48:12.262Z,1.10
2022-12-24T00:50:40.141Z,2.37
2022-12-24T00:53:08.072Z,1.57
2022-12-24T00:55:35.821Z,2.00
2022-12-24T00:58:03.706Z,1.47
2022-12-24T01:00:31.471Z,0.60
2022-12-24T01:02:59.448Z,1.37
2022-12-24T01:05:27.435Z,1.27
2022-12-24T01:07:55.762Z,1.57
2022-12-24T01:10:23.779Z,1.40
2022-12-24T01:12:51.631Z,0.90
2022-12-24T01:15:19.647Z,0.73
2022-12-24T01:17:47.476Z,0.90
2022-12-24T01:20:17.078Z,0.70
2022-12-24T01:22:44.952Z,1.00
2022-12-24T01:25:12.795Z,1.57
2022-12-24T01:27:40.597Z,0.50
2022-12-24T01:30:09.789Z,0.90
2022-12-24T01:32:37.597Z,0.60
2022-12-24T01:35:05.668Z,0.47
2022-12-24T01:37:33.459Z,0.50
2022-12-24T01:40:19.937Z,0.60
2022-12-24T01:43:08.243Z,2.60
2022-12-24T01:45:47.708Z,0.57
2022-12-24T01:48:44.788Z,1.40
2022-12-24T01:51:36.851Z,0.50
2022-12-24T01:54:17.340Z,1.77
2022-12-24T01:56:47.450Z,1.60
2022-12-24T01:59:16.493Z,0.90
2022-12-24T02:01:44.367Z,0.40
2022-12-24T02:04:19.840Z,0.83
2022-12-24T02:06:47.673Z,2.40
2022-12-24T02:09:16.365Z,1.27
2022-12-24T02:11:45.977Z,1.23
2022-12-24T02:14:13.760Z,0.60
2022-12-24T02:16:56.737Z,1.47
2022-12-24T02:19:42.137Z,2.87
2022-12-24T02:22:20.593Z,1.60
2022-12-24T02:25:03.530Z,2.13
2022-12-24T02:27:45.809Z,0.93
2022-12-24T02:30:21.964Z,1.53
2022-12-24T02:33:13.016Z,1.23
2022-12-24T02:35:46.800Z,2.07
2022-12-24T02:38:45.685Z,0.50
2022-12-24T02:41:24.587Z,1.93
2022-12-24T02:43:53.037Z,1.30
2022-12-24T02:46:23.387Z,1.50
2022-12-24T02:48:51.250Z,0.90
2022-12-24T02:51:22.881Z,0.93
2022-12-24T02:53:50.664Z,1.43
2022-12-24T02:56:27.490Z,1.63
2022-12-24T02:59:10.499Z,3.60
2022-12-24T03:01:56.906Z,2.83
2022-12-24T03:04:42.799Z,1.80
2022-12-24T03:07:16.388Z,2.20
2022-12-24T03:09:55.876Z,0.83
2022-12-24T03:12:34.565Z,1.60
2022-12-24T03:15:02.472Z,2.10
2022-12-24T03:17:30.269Z,0.93
2022-12-24T03:19:58.032Z,0.97
2022-12-24T03:22:25.868Z,0.57
2022-12-24T03:24:53.663Z,1.47
2022-12-24T03:27:21.409Z,0.37
2022-12-24T03:29:49.195Z,0.40
2022-12-24T03:32:16.938Z,0.63
2022-12-24T03:34:44.809Z,1.17
2022-12-24T03:37:12.524Z,1.67
2022-12-24T03:39:40.319Z,0.80
2022-12-24T03:42:08.121Z,0.63
2022-12-24T03:44:35.915Z,0.50
2022-12-24T03:47:03.719Z,1.30
2022-12-24T03:49:31.503Z,0.97
2022-12-24T03:51:59.390Z,2.47
2022-12-24T03:54:27.157Z,1.40
2022-12-24T03:56:54.894Z,0.60
2022-12-24T03:59:22.663Z,1.23
2022-12-24T04:01:50.685Z,0.90
2022-12-24T04:04:18.650Z,1.30
2022-12-24T04:06:46.409Z,1.07
2022-12-24T04:09:14.193Z,0.73
2022-12-24T04:11:41.944Z,2.80
2022-12-24T04:14:09.668Z,1.80
2022-12-24T04:16:37.526Z,1.50
2022-12-24T04:19:05.283Z,2.17
2022-12-24T04:21:33.014Z,2.43
2022-12-24T04:24:01.139Z,1.83
2022-12-24T04:26:28.923Z,1.37
2022-12-24T04:28:56.666Z,2.23
2022-12-24T04:31:24.632Z,0.83
2022-12-24T04:33:52.704Z,0.43
2022-12-24T04:36:20.888Z,0.40
2022-12-24T04:38:49.068Z,2.00
2022-12-24T04:41:23.233Z,2.27
2022-12-24T04:43:53.050Z,1.03
2022-12-24T04:46:22.900Z,1.03
2022-12-24T04:48:51.587Z,1.83
2022-12-24T04:51:19.670Z,3.47
2022-12-24T04:53:48.191Z,1.00
2022-12-24T04:56:21.436Z,3.33
2022-12-24T04:58:49.497Z,3.57
2022-12-24T05:01:19.905Z,2.57
2022-12-24T05:03:48.013Z,1.27
2022-12-24T05:06:18.410Z,2.93
2022-12-24T05:08:46.225Z,2.37
2022-12-24T05:11:15.590Z,1.40
2022-12-24T05:13:47.218Z,2.50
2022-12-24T05:16:16.131Z,1.50
2022-12-24T05:18:43.896Z,0.40
2022-12-24T05:21:12.540Z,2.47
2022-12-24T05:23:59.160Z,1.73
2022-12-24T05:26:36.818Z,0.50
2022-12-24T05:29:05.199Z,0.80
2022-12-24T05:31:34.469Z,1.20
2022-12-24T05:34:02.746Z,1.17
2022-12-24T05:36:30.638Z,0.87
2022-12-24T05:38:58.475Z,2.97
2022-12-24T05:41:26.511Z,3.17
2022-12-24T05:43:54.320Z,2.00
2022-12-24T05:46:22.889Z,2.97
2022-12-24T05:48:51.335Z,6.50
2022-12-24T05:51:20.786Z,4.03
2022-12-24T05:53:48.823Z,3.33
2022-12-24T05:56:22.748Z,2.53
2022-12-24T05:58:52.019Z,3.83
2022-12-24T06:01:20.068Z,2.93
2022-12-24T06:03:48.065Z,4.00
2022-12-24T06:06:20.297Z,4.40
2022-12-24T06:08:48.361Z,3.20
2022-12-24T06:11:17.751Z,3.97
2022-12-24T06:13:45.652Z,4.63
2022-12-24T06:16:18.364Z,3.60
2022-12-24T06:18:46.168Z,4.33
2022-12-24T06:21:14.245Z,2.77
2022-12-24T06:23:42.989Z,2.03
2022-12-24T06:26:12.492Z,2.63
2022-12-24T06:28:40.402Z,4.20
2022-12-24T06:31:08.688Z,1.20
2022-12-24T06:33:36.558Z,3.20
2022-12-24T06:36:11.692Z,1.73
2022-12-24T06:38:42.859Z,3.47
2022-12-24T06:41:10.796Z,2.07
2022-12-24T06:43:38.657Z,1.23
2022-12-24T06:46:06.636Z,3.03
2022-12-24T06:48:34.492Z,0.97
2022-12-24T06:51:05.528Z,2.27
2022-12-24T06:53:33.367Z,1.90
2022-12-24T06:56:08.718Z,2.03
2022-12-24T06:58:36.763Z,2.97
2022-12-24T07:01:05.833Z,1.30
2022-12-24T07:03:33.885Z,1.97
2022-12-24T07:06:01.785Z,0.87
2022-12-24T07:08:29.604Z,1.10
2022-12-24T07:10:57.464Z,1.97
2022-12-24T07:13:25.302Z,2.47
2022-12-24T07:16:01.562Z,2.07
2022-12-24T07:18:29.881Z,5.23
2022-12-24T07:20:57.719Z,2.40
2022-12-24T07:23:25.688Z,0.87
2022-12-24T07:25:53.509Z,1.07
2022-12-24T07:28:27.519Z,1.70
2022-12-24T07:30:57.127Z,2.43
2022-12-24T07:33:25.676Z,1.00
2022-12-24T07:36:07.315Z,1.20
2022-12-24T07:38:35.361Z,2.77
2022-12-24T07:41:03.488Z,2.27
2022-12-24T07:43:31.275Z,1.33
2022-12-24T07:45:59.336Z,2.60
2022-12-24T07:48:27.753Z,1.93
2022-12-24T07:50:55.650Z,3.23
2022-12-24T07:53:23.439Z,1.50
2022-12-24T07:55:51.277Z,1.97
2022-12-24T07:58:19.178Z,2.03
2022-12-24T08:00:47.405Z,1.73
2022-12-24T08:03:19.493Z,1.23
2022-12-24T08:05:47.693Z,2.60
2022-12-24T08:08:15.614Z,2.93
2022-12-24T08:10:43.763Z,1.53
2022-12-24T08:13:11.566Z,3.67
2022-12-24T08:15:39.418Z,0.73
2022-12-24T08:18:07.197Z,1.97
2022-12-24T08:20:35.164Z,0.97
2022-12-24T08:23:02.926Z,1.80
2022-12-24T08:25:30.689Z,1.30
2022-12-24T08:27:58.826Z,2.13
2022-12-24T08:30:26.705Z,2.40
2022-12-24T08:32:55.891Z,2.37
2022-12-24T08:35:23.736Z,0.90
2022-12-24T08:37:51.589Z,2.17
2022-12-24T08:40:19.595Z,3.47
2022-12-24T08:42:47.597Z,3.30
2022-12-24T08:45:15.475Z,2.63
2022-12-24T08:47:43.303Z,1.97
2022-12-24T08:50:11.467Z,1.27
2022-12-24T08:52:39.307Z,1.07
2022-12-24T08:55:07.548Z,1.17
2022-12-24T08:57:37.870Z,2.07
2022-12-24T09:00:08.983Z,1.57
2022-12-24T09:02:36.989Z,1.07
2022-12-24T09:05:05.132Z,1.97
2022-12-24T09:07:32.890Z,1.70
2022-12-24T09:10:00.685Z,1.87
2022-12-24T09:12:28.577Z,1.10
2022-12-24T09:15:02.983Z,1.53
2022-12-24T09:17:31.418Z,0.97
2022-12-24T09:19:59.282Z,1.80
2022-12-24T09:22:27.189Z,2.10
2022-12-24T09:24:55.634Z,0.47
2022-12-24T09:27:23.455Z,1.23
2022-12-24T09:29:51.396Z,1.53
2022-12-24T09:32:19.368Z,1.93
2022-12-24T09:34:47.195Z,1.63
2022-12-24T09:37:15.036Z,1.43
2022-12-24T09:39:42.822Z,1.90
2022-12-24T09:42:16.443Z,1.70
2022-12-24T09:45:05.706Z,2.20
2022-12-24T09:47:42.821Z,0.87
2022-12-24T09:50:41.510Z,3.27
2022-12-24T09:53:34.905Z,0.40
2022-12-24T09:56:04.609Z,1.77
2022-12-24T09:58:59.964Z,0.43
2022-12-24T10:01:29.979Z,0.97
2022-12-24T10:04:19.424Z,1.47
2022-12-24T10:07:25.660Z,2.70
2022-12-24T10:10:04.737Z,2.57
2022-12-24T10:12:46.021Z,0.97
2022-12-24T10:15:31.943Z,0.90
2022-12-24T10:18:34.408Z,1.33
2022-12-24T10:21:03.947Z,1.60
2022-12-24T10:23:59.060Z,2.07
2022-12-24T10:26:29.583Z,0.67
2022-12-24T10:29:20.146Z,0.83
2022-12-24T10:31:58.120Z,1.47
2022-12-24T10:34:26.509Z,2.00
2022-12-24T10:36:54.314Z,1.07
2022-12-24T10:39:25.366Z,3.30
2022-12-24T10:41:54.813Z,2.40
2022-12-24T10:44:23.590Z,0.80
2022-12-24T10:46:51.348Z,0.80
2022-12-24T10:49:43.533Z,1.90
2022-12-24T10:52:17.064Z,1.30
2022-12-24T10:55:10.546Z,1.50
2022-12-24T10:57:38.419Z,1.33
2022-12-24T11:00:07.753Z,1.90
2022-12-24T11:02:37.282Z,1.97
2022-12-24T11:05:17.880Z,1.40
2022-12-24T11:07:45.649Z,1.43
2022-12-24T11:10:15.290Z,1.10
2022-12-24T11:13:05.747Z,0.70
2022-12-24T11:15:37.017Z,1.27
2022-12-24T11:18:06.453Z,0.40
2022-12-24T11:20:35.316Z,1.13
2022-12-24T11:23:03.362Z,1.03
2022-12-24T11:25:32.964Z,1.57
2022-12-24T11:28:29.686Z,1.70
2022-12-24T11:31:06.175Z,3.37
2022-12-24T11:33:34.397Z,2.40
2022-12-24T11:36:06.426Z,1.17
2022-12-24T11:38:35.211Z,0.70
2022-12-24T11:41:10.830Z,1.03
2022-12-24T11:43:47.987Z,2.23
2022-12-24T11:46:17.224Z,1.33
2022-12-24T11:48:45.253Z,1.13
2022-12-24T11:51:26.672Z,0.63
2022-12-24T11:54:00.691Z,0.50
2022-12-24T11:56:38.289Z,0.77
2022-12-24T11:59:33.411Z,0.33
2022-12-24T12:02:19.502Z,1.90
2022-12-24T12:04:49.986Z,0.87
2022-12-24T12:07:36.806Z,0.50
2022-12-24T12:10:07.906Z,0.90
2022-12-24T12:12:37.699Z,2.50
2022-12-24T12:15:08.496Z,1.03
2022-12-24T12:17:59.131Z,1.30
2022-12-24T12:20:47.854Z,1.73
2022-12-24T12:23:52.259Z,0.80
2022-12-24T12:26:25.577Z,0.40
2022-12-24T12:28:58.057Z,0.70
2022-12-24T12:31:33.807Z,0.80
2022-12-24T12:34:04.259Z,0.40
2022-12-24T12:36:35.282Z,2.20
2022-12-24T12:39:03.740Z,3.60
2022-12-24T12:41:47.584Z,3.77
2022-12-24T12:44:27.739Z,3.03
2022-12-24T12:47:11.417Z,5.60
2022-12-24T12:50:00.846Z,2.37
2022-12-24T12:52:35.581Z,2.57
2022-12-24T12:55:41.111Z,0.60
2022-12-24T12:58:42.474Z,3.30
2022-12-24T13:01:32.589Z,1.03
2022-12-24T13:04:16.205Z,0.97
2022-12-24T13:07:13.247Z,0.90
2022-12-24T13:10:19.634Z,1.57
2022-12-24T13:13:16.917Z,1.13
2022-12-24T13:16:09.985Z,1.07
2022-12-24T13:18:59.001Z,2.23
2022-12-24T13:21:28.321Z,2.43
2022-12-24T13:24:14.017Z,3.33
2022-12-24T13:26:42.300Z,2.27
2022-12-24T13:29:37.928Z,0.70
2022-12-24T13:32:53.132Z,0.93
2022-12-24T13:35:20.888Z,1.93
2022-12-24T13:37:52.387Z,1.23
2022-12-24T13:40:29.257Z,1.90
2022-12-24T13:43:00.072Z,2.57
2022-12-24T13:45:30.883Z,0.93
2022-12-24T13:48:07.437Z,2.97
2022-12-24T13:50:37.945Z,0.67
2022-12-24T13:53:06.621Z,2.33
2022-12-24T13:55:34.523Z,4.87
2022-12-24T13:58:06.236Z,4.27
2022-12-24T14:00:44.152Z,2.93
2022-12-24T14:03:15.324Z,1.97
2022-12-24T14:05:47.578Z,2.47
2022-12-24T14:08:29.644Z,4.17
2022-12-24T14:11:17.989Z,2.47
2022-12-24T14:13:45.729Z,1.50
2022-12-24T14:16:14.591Z,1.80
2022-12-24T14:18:44.882Z,2.43
2022-12-24T14:21:36.698Z,0.90
2022-12-24T14:24:06.815Z,3.57
2022-12-24T14:26:46.042Z,2.97
2022-12-24T14:29:25.016Z,1.10
2022-12-24T14:31:57.590Z,1.17
2022-12-24T14:34:25.604Z,1.50
2022-12-24T14:36:55.698Z,2.97
2022-12-24T14:39:25.929Z,2.27
2022-12-24T14:42:16.587Z,4.83
2022-12-24T14:45:03.120Z,2.20
2022-12-24T14:47:39.091Z,3.57
2022-12-24T14:50:25.414Z,2.50
2022-12-24T14:53:06.256Z,1.83
2022-12-24T14:55:45.441Z,1.90
2022-12-24T14:58:31.776Z,3.57
2022-12-24T15:01:01.783Z,3.63
2022-12-24T15:03:31.900Z,2.87
2022-12-24T15:06:10.388Z,1.63
2022-12-24T15:08:42.094Z,3.50
2022-12-24T15:11:10.597Z,3.00
2022-12-24T15:13:45.680Z,2.87
2022-12-24T15:16:15.071Z,3.47
2022-12-24T15:18:51.269Z,1.90
2022-12-24T15:21:33.772Z,2.07
2022-12-24T15:24:01.877Z,2.10
2022-12-24T15:26:32.153Z,2.70
2022-12-24T15:29:03.625Z,1.47
2022-12-24T15:31:32.178Z,1.77
2022-12-24T15:34:03.021Z,3.20
2022-12-24T15:36:37.428Z,2.97
2022-12-24T15:39:09.422Z,1.97
2022-12-24T15:41:39.736Z,1.67
2022-12-24T15:44:07.659Z,2.80
2022-12-24T15:46:35.600Z,2.73
2022-12-24T15:49:03.491Z,2.47
2022-12-24T15:51:36.973Z,2.93
2022-12-24T15:54:13.112Z,4.33
2022-12-24T15:56:45.403Z,2.37
2022-12-24T15:59:17.267Z,3.73
2022-12-24T16:01:45.780Z,1.00
2022-12-24T16:04:15.655Z,2.60
2022-12-24T16:07:09.152Z,3.67
2022-12-24T16:09:36.933Z,3.03
2022-12-24T16:12:05.237Z,2.40
2022-12-24T16:14:33.504Z,3.27
2022-12-24T16:17:01.471Z,2.63
2022-12-24T16:19:37.636Z,2.03
2022-12-24T16:22:26.148Z,3.03
2022-12-24T16:24:54.043Z,0.90
2022-12-24T16:27:21.845Z,2.37
2022-12-24T16:29:49.597Z,2.10
2022-12-24T16:32:32.331Z,5.83
2022-12-24T16:35:00.267Z,3.63
2022-12-24T16:37:28.145Z,2.10
2022-12-24T16:39:56.133Z,2.87
2022-12-24T16:42:42.399Z,2.27
2022-12-24T16:45:11.497Z,1.73
2022-12-24T16:47:43.140Z,2.87
2022-12-24T16:50:16.074Z,4.80
2022-12-24T16:52:43.943Z,2.43
2022-12-24T16:55:14.858Z,3.40
2022-12-24T16:57:43.183Z,2.67
2022-12-24T17:00:22.031Z,2.63
2022-12-24T17:02:50.765Z,1.80
2022-12-24T17:05:18.947Z,2.17
2022-12-24T17:07:46.844Z,2.43
2022-12-24T17:10:15.189Z,1.93
2022-12-24T17:12:43.642Z,2.73
2022-12-24T17:15:11.697Z,3.27
2022-12-24T17:17:39.470Z,2.73
2022-12-24T17:20:07.922Z,2.80
2022-12-24T17:22:35.731Z,3.37
2022-12-24T17:25:03.658Z,4.07
2022-12-24T17:27:31.548Z,2.43
2022-12-24T17:29:59.403Z,4.90
2022-12-24T17:32:28.745Z,5.53
2022-12-24T17:34:56.551Z,3.23
2022-12-24T17:37:24.350Z,6.13
2022-12-24T17:39:52.130Z,8.53
2022-12-24T17:42:20.112Z,8.00
2022-12-24T17:44:47.814Z,10.73
2022-12-24T17:47:15.558Z,9.30
2022-12-24T17:49:43.334Z,18.20
2022-12-24T17:52:11.173Z,14.00
2022-12-24T17:54:38.986Z,10.27
2022-12-24T17:57:06.825Z,14.37
2022-12-24T17:59:34.761Z,8.97
2022-12-24T18:02:02.753Z,6.17
2022-12-24T18:04:30.626Z,6.17
2022-12-24T18:07:02.508Z,5.07
2022-12-24T18:09:30.727Z,4.03
2022-12-24T18:11:58.531Z,3.33
2022-12-24T18:14:26.340Z,4.33
2022-12-24T18:16:54.153Z,4.37
2022-12-24T18:19:21.897Z,4.60
2022-12-24T18:21:49.759Z,2.47
2022-12-24T18:24:17.771Z,4.57
2022-12-24T18:26:46.862Z,5.27
2022-12-24T18:29:14.933Z,4.63
2022-12-24T18:31:42.786Z,5.77
2022-12-24T18:34:12.694Z,8.37
2022-12-24T18:36:40.568Z,6.33
2022-12-24T18:39:08.512Z,6.93
2022-12-24T18:41:37.101Z,7.13
2022-12-24T18:44:04.976Z,8.13
2022-12-24T18:46:33.857Z,7.73
2022-12-24T18:49:01.954Z,6.60
2022-12-24T18:51:32.081Z,3.50
2022-12-24T18:54:00.040Z,5.90
2022-12-24T18:56:27.988Z,4.07
2022-12-24T18:58:57.325Z,5.57
2022-12-24T19:01:30.544Z,3.83
2022-12-24T19:03:58.652Z,4.27
2022-12-24T19:06:26.746Z,3.90
2022-12-24T19:08:57.733Z,3.80
2022-12-24T19:11:27.075Z,6.70
2022-12-24T19:13:54.934Z,4.03
2022-12-24T19:16:22.947Z,5.43
2022-12-24T19:18:51.160Z,6.00
2022-12-24T19:21:19.104Z,4.53
2022-12-24T19:23:47.114Z,4.57
2022-12-24T19:26:15.477Z,4.90
2022-12-24T19:28:43.310Z,5.17
2022-12-24T19:31:13.225Z,3.93
2022-12-24T19:33:45.222Z,2.83
2022-12-24T19:36:14.780Z,6.23
2022-12-24T19:38:42.879Z,3.97
2022-12-24T19:41:18.179Z,5.53
2022-12-24T19:43:47.458Z,6.63
2022-12-24T19:46:17.104Z,3.97
2022-12-24T19:48:45.020Z,4.67
2022-12-24T19:51:13.242Z,3.67
2022-12-24T19:53:41.180Z,4.57
2022-12-24T19:56:09.824Z,3.47
2022-12-24T19:58:37.743Z,5.57
2022-12-24T20:01:14.847Z,2.93
2022-12-24T20:03:43.752Z,3.90
2022-12-24T20:06:11.636Z,4.67
2022-12-24T20:08:40.027Z,4.93
2022-12-24T20:11:09.308Z,3.53
2022-12-24T20:13:37.373Z,3.73
2022-12-24T20:16:16.195Z,4.60
2022-12-24T20:18:44.218Z,3.97
2022-12-24T20:21:13.077Z,3.57
2022-12-24T20:23:41.731Z,5.37
2022-12-24T20:26:12.097Z,3.43
2022-12-24T20:28:39.978Z,2.80
2022-12-24T20:31:15.801Z,3.13
2022-12-24T20:33:44.223Z,3.47
2022-12-24T20:36:12.535Z,4.30
2022-12-24T20:38:40.615Z,4.93
2022-12-24T20:41:10.888Z,3.93
2022-12-24T20:43:47.008Z,3.03
2022-12-24T20:46:15.170Z,4.07
2022-12-24T20:48:43.514Z,3.57
2022-12-24T20:51:20.941Z,4.93
2022-12-24T20:53:51.026Z,5.07
2022-12-24T20:56:18.927Z,3.77
2022-12-24T20:58:46.849Z,7.40
2022-12-24T21:01:19.668Z,6.13
2022-12-24T21:03:47.977Z,3.63
2022-12-24T21:06:20.468Z,3.33
2022-12-24T21:08:50.267Z,3.67
2022-12-24T21:11:36.612Z,5.90
2022-12-24T21:14:09.556Z,3.23
2022-12-24T21:16:43.192Z,4.87
2022-12-24T21:19:12.885Z,3.27
2022-12-24T21:21:46.284Z,4.03
2022-12-24T21:24:14.359Z,5.43
2022-12-24T21:26:47.075Z,3.87
2022-12-24T21:29:15.956Z,4.50
2022-12-24T21:31:44.035Z,6.47
2022-12-24T21:34:11.947Z,5.13
2022-12-24T21:36:44.619Z,6.20
2022-12-24T21:39:24.826Z,6.33
2022-12-24T21:41:53.100Z,5.93
2022-12-24T21:44:21.325Z,6.70
2022-12-24T21:46:55.976Z,6.80
2022-12-24T21:49:42.728Z,8.97
2022-12-24T21:52:10.787Z,11.20
2022-12-24T21:54:43.366Z,7.93
2022-12-24T21:57:29.784Z,7.47
2022-12-24T22:00:18.681Z,6.77
2022-12-24T22:02:51.462Z,6.33
2022-12-24T22:05:31.658Z,7.23
2022-12-24T22:08:30.752Z,6.80
2022-12-24T22:11:29.946Z,7.53
2022-12-24T22:13:57.843Z,7.17
2022-12-24T22:16:26.024Z,6.83
2022-12-24T22:18:59.642Z,7.77
2022-12-24T22:21:32.278Z,6.40
2022-12-24T22:24:05.351Z,7.20
2022-12-24T22:26:33.243Z,7.73
2022-12-24T22:29:06.686Z,7.73
2022-12-24T22:31:39.748Z,7.60
2022-12-24T22:34:08.205Z,9.53
2022-12-24T22:36:41.299Z,8.63
2022-12-24T22:39:09.124Z,10.57
2022-12-24T22:41:37.199Z,9.97
2022-12-24T22:44:05.267Z,9.60
2022-12-24T22:46:58.237Z,9.27
2022-12-24T22:49:39.872Z,10.87
2022-12-24T22:52:12.494Z,10.23
2022-12-24T22:54:40.469Z,9.77
2022-12-24T22:57:11.445Z,9.27
2022-12-24T22:59:42.640Z,10.20
2022-12-24T23:02:15.291Z,9.77
2022-12-24T23:04:46.339Z,10.17
2022-12-24T23:07:14.221Z,9.43
2022-12-24T23:09:47.416Z,9.97
2022-12-24T23:12:15.363Z,10.90
2022-12-24T23:14:58.133Z,10.60
2022-12-24T23:17:26.212Z,9.10
2022-12-24T23:19:56.888Z,10.37
2022-12-24T23:22:29.767Z,10.57
2022-12-24T23:25:12.788Z,9.27
2022-12-24T23:27:45.529Z,13.60
2022-12-24T23:30:13.737Z,9.03
2022-12-24T23:32:46.325Z,11.00
2022-12-24T23:35:26.547Z,12.03
2022-12-24T23:37:54.426Z,10.40
2022-12-24T23:40:27.142Z,10.10
2022-12-24T23:42:59.751Z,10.63
2022-12-24T23:45:32.477Z,10.90
2022-12-24T23:48:00.776Z,12.13
2022-12-24T23:50:28.999Z,18.53
2022-12-24T23:53:01.943Z,11.80
2022-12-24T23:55:32.489Z,11.90
2022-12-24T23:58:14.987Z,11.53
